NCAR-RAP Real-Time Weather Data

Output produced by METARs form (06 May 2021  16:59 UTC)
found at http://weather.rap.ucar.edu/surface/
 
KCID 061552Z 35015G26KT 10SM FEW043 13/02 A3017 RMK AO2 PK WND 03028/1514 SLP216 T01330017
KCID 061452Z 35018G25KT 10SM FEW025 BKN032 BKN040 10/03 A3017 RMK AO2 PK WND 01029/1437 SLP217 T01000028 51020
KCID 061411Z 36017G25KT 10SM SCT022 BKN042 10/04 A3016 RMK AO2 T01000044
KCID 061352Z 35015KT 10SM BKN020 BKN026 08/04 A3015 RMK AO2 PK WND 36027/1316 SLP213 T00830039
KCID 061252Z 01017KT 10SM BKN015 OVC022 08/05 A3013 RMK AO2 SLP206 T00830050
KCID 061245Z 36015G19KT 10SM BKN013 OVC018 08/05 A3013 RMK AO2 T00830050
KCID 061152Z 01013KT 10SM SCT013 BKN060 OVC080 08/05 A3011 RMK AO2 SLP197 T00830050 10128 20078 53013
KCID 061052Z 02012KT 10SM SCT075 BKN095 08/05 A3009 RMK AO2 SLP189 T00830050
KCID 060952Z 03017KT 10SM SCT075 OVC090 09/04 A3008 RMK AO2 SLP185 T00890044
KCID 060852Z AUTO 36014KT 10SM OVC080 11/04 A3007 RMK AO2 SLP183 T01060044 55002
KCID 060752Z AUTO 06008KT 10SM BKN085 OVC110 11/04 A3005 RMK AO2 SLP174 T01110044
KCID 060652Z AUTO 08007KT 10SM OVC085 12/03 A3006 RMK AO2 SLP180 T01170033
KCID 060552Z AUTO 02008KT 10SM OVC090 13/03 A3008 RMK AO2 SLP185 T01280028 10167 20122 401890022 58007
KCID 060452Z AUTO 32008KT 10SM FEW075 OVC090 12/03 A3009 RMK AO2 SLP189 T01220033
KCID 060352Z 00000KT 10SM OVC080 13/03 A3010 RMK AO2 SLP192 T01330028
KCID 060252Z 00000KT 10SM OVC075 15/01 A3010 RMK AO2 SLP193 T01500011 51006